createdAt,value
2023-11-12T00:00:50.009Z,14.35
2023-11-12T00:03:36.314Z,15.25
2023-11-12T00:06:04.487Z,16.00
2023-11-12T00:08:32.991Z,14.68
2023-11-12T00:11:00.740Z,16.65
2023-11-12T00:13:28.113Z,17.45
2023-11-12T00:15:56.989Z,18.63
2023-11-12T00:18:25.063Z,17.70
2023-11-12T00:20:53.161Z,14.45
2023-11-12T00:23:25.631Z,15.75
2023-11-12T00:25:54.705Z,17.23
2023-11-12T00:28:22.092Z,21.90
2023-11-12T00:30:49.495Z,14.85
2023-11-12T00:33:17.013Z,18.52
2023-11-12T00:35:44.837Z,19.98
2023-11-12T00:38:15.578Z,19.05
2023-11-12T00:40:43.242Z,17.52
2023-11-12T00:43:10.595Z,19.63
2023-11-12T00:45:38.906Z,18.60
2023-11-12T00:48:07.041Z,19.65
2023-11-12T00:50:35.887Z,16.85
2023-11-12T00:53:03.531Z,19.38
2023-11-12T00:55:30.955Z,17.77
2023-11-12T00:57:58.247Z,19.33
2023-11-12T01:00:25.674Z,18.27
2023-11-12T01:02:53.020Z,18.15
2023-11-12T01:05:21.157Z,20.38
2023-11-12T01:07:48.760Z,16.75
2023-11-12T01:10:16.349Z,24.95
2023-11-12T01:12:43.812Z,24.88
2023-11-12T01:15:11.401Z,21.63
2023-11-12T01:17:39.211Z,28.27
2023-11-12T01:20:08.134Z,25.45
2023-11-12T01:22:35.634Z,15.10
2023-11-12T01:25:03.959Z,18.90
2023-11-12T01:27:31.355Z,19.15
2023-11-12T01:29:58.765Z,23.00
2023-11-12T01:32:27.673Z,14.43
2023-11-12T01:34:57.235Z,24.63
2023-11-12T01:37:24.737Z,20.13
2023-11-12T01:39:51.980Z,25.05
2023-11-12T01:42:20.465Z,27.35
2023-11-12T01:44:47.943Z,25.48
2023-11-12T01:47:15.884Z,21.60
2023-11-12T01:49:43.294Z,23.58
2023-11-12T01:52:12.694Z,25.77
2023-11-12T01:54:41.296Z,23.08
2023-11-12T01:57:09.381Z,23.25
2023-11-12T01:59:37.358Z,23.95
2023-11-12T02:02:05.694Z,20.20
2023-11-12T02:04:33.481Z,27.38
2023-11-12T02:07:03.000Z,21.98
2023-11-12T02:09:30.723Z,22.95
2023-11-12T02:11:58.562Z,23.67
2023-11-12T02:14:27.346Z,23.63
2023-11-12T02:16:56.783Z,21.75
2023-11-12T02:19:33.459Z,23.08
2023-11-12T02:22:00.762Z,22.35
2023-11-12T02:24:27.996Z,22.98
2023-11-12T02:26:55.521Z,21.45
2023-11-12T02:29:23.466Z,22.40
2023-11-12T02:31:51.374Z,16.05
2023-11-12T02:34:19.880Z,26.35
2023-11-12T02:36:47.777Z,25.17
2023-11-12T02:39:17.059Z,26.33
2023-11-12T02:41:46.101Z,28.02
2023-11-12T02:44:14.761Z,27.23
2023-11-12T02:46:43.062Z,29.85
2023-11-12T02:49:49.368Z,29.27
2023-11-12T02:52:16.976Z,25.98
2023-11-12T02:54:44.379Z,24.63
2023-11-12T02:57:11.798Z,27.63
2023-11-12T02:59:39.243Z,24.67
2023-11-12T03:02:25.237Z,23.60
2023-11-12T03:04:52.653Z,22.27
2023-11-12T03:07:20.282Z,18.50
2023-11-12T03:09:49.933Z,20.85
2023-11-12T03:12:17.422Z,22.05
2023-11-12T03:14:45.083Z,23.27
2023-11-12T03:17:12.346Z,22.77
2023-11-12T03:19:40.309Z,23.35
2023-11-12T03:22:10.342Z,18.52
2023-11-12T03:24:37.822Z,20.02
2023-11-12T03:27:05.394Z,15.82
2023-11-12T03:29:32.849Z,19.02
2023-11-12T03:32:00.471Z,18.08
2023-11-12T03:34:27.899Z,18.83
2023-11-12T03:36:55.307Z,17.60
2023-11-12T03:39:24.143Z,15.02
2023-11-12T03:41:52.388Z,12.77
2023-11-12T03:44:19.954Z,19.80
2023-11-12T03:46:47.354Z,15.23
2023-11-12T03:49:14.760Z,18.00
2023-11-12T03:51:42.954Z,13.45
2023-11-12T03:54:12.187Z,14.52
2023-11-12T03:56:39.972Z,16.25
2023-11-12T03:59:26.481Z,14.77
2023-11-12T04:01:53.803Z,16.35
2023-11-12T04:04:21.980Z,10.30
2023-11-12T04:06:49.864Z,15.52
2023-11-12T04:09:17.700Z,12.55
2023-11-12T04:11:45.386Z,15.80
2023-11-12T04:14:13.529Z,13.63
2023-11-12T04:16:42.248Z,11.23
2023-11-12T04:19:09.685Z,13.25
2023-11-12T04:21:37.481Z,9.25
2023-11-12T04:24:07.018Z,11.73
2023-11-12T04:26:35.003Z,15.07
2023-11-12T04:29:08.850Z,12.32
2023-11-12T04:31:37.515Z,13.77
2023-11-12T04:34:05.258Z,11.57
2023-11-12T04:40:14.659Z,16.27
2023-11-12T04:42:43.830Z,12.63
2023-11-12T04:45:12.382Z,14.35
2023-11-12T04:47:40.010Z,14.02
2023-11-12T04:50:08.251Z,11.35
2023-11-12T04:52:35.694Z,10.50
2023-11-12T04:55:03.132Z,14.55
2023-11-12T04:57:30.930Z,10.55
2023-11-12T04:59:59.719Z,14.15
2023-11-12T05:02:27.029Z,17.35
2023-11-12T05:04:54.590Z,14.02
2023-11-12T05:07:22.013Z,13.77
2023-11-12T05:09:49.619Z,13.13
2023-11-12T05:12:17.189Z,10.27
2023-11-12T05:14:44.614Z,18.00
2023-11-12T05:17:12.042Z,20.05
2023-11-12T05:19:58.021Z,13.70
2023-11-12T05:22:25.584Z,16.10
2023-11-12T05:24:52.944Z,15.98
2023-11-12T05:27:20.760Z,20.05
2023-11-12T05:29:48.443Z,13.60
2023-11-12T05:32:16.220Z,16.55
2023-11-12T05:34:43.405Z,15.38
2023-11-12T05:37:10.761Z,17.48
2023-11-12T05:39:38.233Z,12.18
2023-11-12T05:42:05.991Z,12.88
2023-11-12T05:44:34.103Z,14.52
2023-11-12T05:47:01.779Z,11.40
2023-11-12T05:49:29.035Z,14.18
2023-11-12T05:51:56.882Z,14.32
2023-11-12T05:54:43.302Z,14.27
2023-11-12T05:57:29.259Z,15.68
2023-11-12T05:59:56.824Z,13.80
2023-11-12T06:02:24.333Z,17.75
2023-11-12T06:04:51.812Z,12.23
2023-11-12T06:07:19.341Z,12.18
2023-11-12T06:10:05.714Z,13.55
2023-11-12T06:12:33.341Z,13.02
2023-11-12T06:15:00.807Z,12.82
2023-11-12T06:17:29.226Z,11.30
2023-11-12T06:19:56.760Z,14.10
2023-11-12T06:22:24.028Z,18.20
2023-11-12T06:24:51.365Z,9.32
2023-11-12T06:27:18.958Z,13.02
2023-11-12T06:29:47.916Z,12.23
2023-11-12T06:32:15.237Z,9.65
2023-11-12T06:34:42.720Z,9.80
2023-11-12T06:37:30.761Z,10.43
2023-11-12T06:39:58.137Z,8.98
2023-11-12T06:42:26.635Z,12.40
2023-11-12T06:44:54.844Z,11.68
2023-11-12T06:47:22.264Z,8.73
2023-11-12T06:49:49.840Z,13.30
2023-11-12T06:52:21.781Z,13.63
2023-11-12T06:54:49.139Z,10.68
2023-11-12T06:57:16.528Z,10.63
2023-11-12T06:59:43.947Z,11.35
2023-11-12T07:02:20.342Z,12.32
2023-11-12T07:04:49.390Z,9.18
2023-11-12T07:07:17.349Z,12.50
2023-11-12T07:09:47.778Z,14.07
2023-11-12T07:12:16.522Z,14.98
2023-11-12T07:14:46.371Z,11.05
2023-11-12T07:17:16.938Z,11.52
2023-11-12T07:19:44.663Z,8.85
2023-11-12T07:22:15.099Z,10.90
2023-11-12T07:24:42.726Z,8.40
2023-11-12T07:27:12.799Z,9.77
2023-11-12T07:29:40.294Z,15.23
2023-11-12T07:32:27.160Z,15.82
2023-11-12T07:34:54.498Z,13.05
2023-11-12T07:37:21.810Z,13.45
2023-11-12T07:39:49.626Z,8.80
2023-11-12T07:42:17.521Z,11.02
2023-11-12T07:44:44.757Z,9.15
2023-11-12T07:47:12.214Z,11.05
2023-11-12T07:49:39.661Z,9.00
2023-11-12T07:52:07.180Z,7.65
2023-11-12T07:54:34.400Z,9.13
2023-11-12T07:57:05.793Z,7.90
2023-11-12T07:59:39.793Z,10.73
2023-11-12T08:04:34.546Z,11.48
2023-11-12T08:07:02.204Z,11.65
2023-11-12T08:09:29.723Z,11.23
2023-11-12T08:11:57.644Z,8.25
2023-11-12T08:14:26.103Z,9.80
2023-11-12T08:16:53.873Z,11.70
2023-11-12T08:19:21.291Z,12.82
2023-11-12T08:21:48.957Z,8.75
2023-11-12T08:24:16.689Z,10.05
2023-11-12T08:26:44.389Z,13.13
2023-11-12T08:29:14.999Z,10.68
2023-11-12T08:31:47.033Z,5.10
2023-11-12T08:36:08.569Z,12.20
2023-11-12T08:39:32.323Z,8.98
2023-11-12T08:43:05.733Z,10.80
2023-11-12T08:50:55.944Z,7.10
2023-11-12T08:58:44.851Z,10.55
2023-11-12T09:01:18.809Z,11.23
2023-11-12T09:03:50.009Z,11.18
2023-11-12T09:06:17.648Z,11.25
2023-11-12T09:08:45.092Z,9.32
2023-11-12T09:11:15.903Z,10.95
2023-11-12T09:13:46.692Z,9.13
2023-11-12T09:16:14.647Z,11.52
2023-11-12T09:18:42.241Z,10.05
2023-11-12T09:21:12.588Z,10.70
2023-11-12T09:23:40.697Z,12.75
2023-11-12T09:26:09.345Z,6.93
2023-11-12T09:28:37.515Z,10.27
2023-11-12T09:31:08.017Z,14.18
2023-11-12T09:33:35.430Z,7.03
2023-11-12T09:36:12.577Z,10.80
2023-11-12T09:38:43.154Z,7.70
2023-11-12T09:41:11.561Z,6.30
2023-11-12T09:43:39.184Z,8.18
2023-11-12T09:46:08.574Z,14.60
2023-11-12T09:48:45.159Z,10.90
2023-11-12T09:51:15.106Z,9.63
2023-11-12T09:53:53.881Z,9.18
2023-11-12T09:56:26.299Z,10.63
2023-11-12T09:58:57.050Z,12.18
2023-11-12T10:01:25.924Z,9.77
2023-11-12T10:03:58.314Z,7.60
2023-11-12T10:06:32.428Z,9.07
2023-11-12T10:09:05.401Z,11.15
2023-11-12T10:11:33.059Z,7.40
2023-11-12T10:14:04.825Z,8.15
2023-11-12T10:16:34.088Z,11.25
2023-11-12T10:19:24.201Z,5.35
2023-11-12T10:22:00.270Z,11.63
2023-11-12T10:24:32.698Z,10.60
2023-11-12T10:27:09.805Z,10.68
2023-11-12T10:29:37.506Z,8.82
2023-11-12T10:32:09.460Z,8.27
2023-11-12T10:35:14.321Z,10.85
2023-11-12T10:39:01.393Z,9.38
2023-11-12T10:41:36.690Z,11.38
2023-11-12T10:44:11.907Z,9.90
2023-11-12T10:46:47.064Z,8.73
2023-11-12T10:49:16.321Z,9.10
2023-11-12T10:51:44.095Z,9.02
2023-11-12T10:54:16.428Z,8.20
2023-11-12T10:56:53.581Z,7.50
2023-11-12T10:59:23.113Z,8.40
2023-11-12T11:01:51.875Z,8.27
2023-11-12T11:04:21.738Z,8.98
2023-11-12T11:06:49.113Z,12.90
2023-11-12T11:09:16.595Z,6.15
2023-11-12T11:11:44.315Z,8.68
2023-11-12T11:14:32.207Z,8.27
2023-11-12T11:17:01.848Z,11.05
2023-11-12T11:19:44.718Z,8.88
2023-11-12T11:22:27.308Z,13.10
2023-11-12T11:24:56.589Z,10.30
2023-11-12T11:27:28.430Z,12.55
2023-11-12T11:30:17.717Z,10.07
2023-11-12T11:33:01.454Z,10.73
2023-11-12T11:35:30.382Z,16.00
2023-11-12T11:38:11.403Z,16.60
2023-11-12T11:40:41.434Z,15.57
2023-11-12T11:43:24.310Z,11.57
2023-11-12T11:46:10.889Z,15.10
2023-11-12T11:49:03.878Z,12.73
2023-11-12T11:51:36.973Z,12.77
2023-11-12T11:54:06.461Z,13.10
2023-11-12T11:56:35.441Z,14.88
2023-11-12T11:59:04.343Z,15.90
2023-11-12T12:01:43.550Z,10.85
2023-11-12T12:04:11.346Z,12.10
2023-11-12T12:06:48.913Z,9.65
2023-11-12T12:09:20.672Z,14.27
2023-11-12T12:11:50.018Z,16.05
2023-11-12T12:14:17.755Z,11.27
2023-11-12T12:16:46.727Z,22.02
2023-11-12T12:19:23.086Z,14.98
2023-11-12T12:21:52.397Z,19.80
2023-11-12T12:24:23.304Z,10.25
2023-11-12T12:26:51.842Z,18.95
2023-11-12T12:29:23.657Z,17.83
2023-11-12T12:31:55.188Z,16.90
2023-11-12T12:34:26.382Z,7.95
2023-11-12T12:37:09.372Z,20.83
2023-11-12T12:39:57.688Z,11.45
2023-11-12T12:42:29.187Z,22.45
2023-11-12T12:45:00.959Z,13.80
2023-11-12T12:47:35.139Z,60.20
2023-11-12T12:50:18.081Z,20.70
2023-11-12T12:53:37.128Z,11.13
2023-11-12T12:56:06.793Z,21.75
2023-11-12T12:58:41.147Z,29.17
2023-11-12T13:01:12.392Z,11.07
2023-11-12T13:03:42.645Z,39.70
2023-11-12T13:06:10.773Z,27.73
2023-11-12T13:09:01.206Z,56.53
2023-11-12T13:11:28.828Z,61.53
2023-11-12T13:16:42.694Z,87.70
2023-11-12T13:19:15.699Z,28.00
2023-11-12T13:24:22.364Z,96.55
2023-11-12T13:26:50.168Z,14.60
2023-11-12T13:29:17.804Z,43.92
2023-11-12T13:31:45.424Z,270.33
2023-11-12T13:34:15.353Z,226.57
2023-11-12T13:36:42.747Z,91.88
2023-11-12T13:39:15.219Z,231.82
2023-11-12T13:41:42.770Z,133.23
2023-11-12T13:44:11.154Z,429.77
2023-11-12T13:46:45.945Z,338.27
2023-11-12T13:49:17.314Z,328.23
2023-11-12T13:51:49.036Z,157.23
2023-11-12T13:54:16.613Z,137.43
2023-11-12T13:56:44.134Z,343.10
2023-11-12T13:59:13.794Z,237.48
2023-11-12T14:01:42.698Z,389.92
2023-11-12T14:04:11.277Z,180.18
2023-11-12T14:06:39.932Z,381.10
2023-11-12T14:09:13.276Z,379.27
2023-11-12T14:11:41.241Z,460.67
2023-11-12T14:14:08.959Z,285.25
2023-11-12T14:16:40.521Z,205.48
2023-11-12T14:19:12.130Z,92.85
2023-11-12T14:21:45.004Z,174.93
2023-11-12T14:24:13.503Z,20.20
2023-11-12T14:26:52.205Z,65.95
2023-11-12T14:29:27.124Z,31.27
2023-11-12T14:31:57.075Z,33.55
2023-11-12T14:34:24.762Z,14.50
2023-11-12T14:36:54.855Z,19.88
2023-11-12T14:39:27.706Z,13.27
2023-11-12T14:41:55.345Z,16.90
2023-11-12T14:44:22.961Z,16.40
2023-11-12T14:47:11.183Z,19.52
2023-11-12T14:49:38.718Z,15.20
2023-11-12T14:52:09.579Z,26.73
2023-11-12T14:54:37.372Z,24.42
2023-11-12T14:57:05.839Z,93.68
2023-11-12T14:59:33.414Z,51.17
2023-11-12T15:02:00.926Z,82.38
2023-11-12T15:04:28.433Z,131.45
2023-11-12T15:06:58.873Z,35.58
2023-11-12T15:09:26.278Z,76.82
2023-11-12T15:11:56.593Z,54.17
2023-11-12T15:14:26.139Z,276.88
2023-11-12T15:16:53.694Z,54.50
2023-11-12T15:19:21.332Z,358.80
2023-11-12T15:21:52.077Z,115.20
2023-11-12T15:24:20.568Z,497.10
2023-11-12T15:26:49.447Z,392.77
2023-11-12T15:29:35.697Z,276.02
2023-11-12T15:32:03.744Z,80.78
2023-11-12T15:34:31.496Z,338.20
2023-11-12T15:36:59.419Z,231.07
2023-11-12T15:39:46.073Z,262.73
2023-11-12T15:42:14.045Z,224.02
2023-11-12T15:44:42.111Z,159.90
2023-11-12T15:47:09.673Z,33.95
2023-11-12T15:49:38.007Z,208.43
2023-11-12T15:52:05.693Z,44.83
2023-11-12T15:54:33.218Z,37.50
2023-11-12T15:57:04.511Z,193.65
2023-11-12T15:59:32.150Z,117.95
2023-11-12T16:02:00.205Z,76.28
2023-11-12T16:04:27.878Z,81.28
2023-11-12T16:06:57.790Z,104.75
2023-11-12T16:09:25.448Z,49.15
2023-11-12T16:11:53.597Z,36.13
2023-11-12T16:14:39.787Z,43.83
2023-11-12T16:17:10.120Z,28.50
2023-11-12T16:19:41.136Z,34.10
2023-11-12T16:22:08.918Z,98.63
2023-11-12T16:24:36.390Z,101.35
2023-11-12T16:27:04.247Z,131.75
2023-11-12T16:29:31.834Z,346.85
2023-11-12T16:32:10.486Z,222.50
2023-11-12T16:34:39.283Z,433.80
2023-11-12T16:37:07.096Z,317.42
2023-11-12T16:39:46.329Z,30.38
2023-11-12T16:42:17.918Z,57.63
2023-11-12T16:44:46.594Z,42.95
2023-11-12T16:47:20.495Z,37.78
2023-11-12T16:50:10.875Z,51.67
2023-11-12T16:52:39.950Z,22.35
2023-11-12T16:55:08.154Z,58.17
2023-11-12T16:57:37.719Z,34.00
2023-11-12T17:00:07.582Z,25.92
2023-11-12T17:02:37.237Z,24.98
2023-11-12T17:05:06.496Z,26.63
2023-11-12T17:07:34.763Z,33.35
2023-11-12T17:10:06.015Z,28.65
2023-11-12T17:12:52.686Z,16.10
2023-11-12T17:15:21.132Z,30.67
2023-11-12T17:17:50.367Z,29.23
2023-11-12T17:20:31.785Z,31.85
2023-11-12T17:23:01.868Z,22.50
2023-11-12T17:25:32.072Z,31.20
2023-11-12T17:28:05.303Z,28.10
2023-11-12T17:30:37.175Z,24.95
2023-11-12T17:33:10.522Z,27.73
2023-11-12T17:35:40.448Z,27.40
2023-11-12T17:38:13.590Z,22.88
2023-11-12T17:40:44.452Z,31.00
2023-11-12T17:43:15.786Z,26.17
2023-11-12T17:45:48.347Z,25.08
2023-11-12T17:48:19.964Z,23.95
2023-11-12T17:50:48.176Z,19.48
2023-11-12T17:53:33.607Z,24.13
2023-11-12T17:56:01.627Z,24.45
2023-11-12T17:58:32.363Z,25.70
2023-11-12T18:01:08.671Z,24.30
2023-11-12T18:03:39.926Z,21.45
2023-11-12T18:06:10.592Z,21.95
2023-11-12T18:08:39.938Z,25.02
2023-11-12T18:11:11.135Z,20.17
2023-11-12T18:13:40.781Z,23.83
2023-11-12T18:16:10.412Z,17.23
2023-11-12T18:18:42.611Z,17.88
2023-11-12T18:21:13.661Z,23.30
2023-11-12T18:23:44.901Z,26.98
2023-11-12T18:26:15.861Z,20.17
2023-11-12T18:28:48.919Z,24.50
2023-11-12T18:33:52.386Z,20.70
2023-11-12T18:36:22.111Z,20.73
2023-11-12T18:38:52.232Z,23.10
2023-11-12T18:41:20.076Z,27.35
2023-11-12T18:43:50.658Z,16.67
2023-11-12T18:46:19.460Z,22.50
2023-11-12T18:49:02.966Z,16.50
2023-11-12T18:51:32.950Z,21.13
2023-11-12T18:54:01.556Z,20.10
2023-11-12T18:56:37.450Z,18.05
2023-11-12T18:59:10.449Z,20.27
2023-11-12T19:01:40.746Z,15.88
2023-11-12T19:04:08.895Z,18.25
2023-11-12T19:06:41.894Z,16.38
2023-11-12T19:09:14.030Z,14.07
2023-11-12T19:11:42.336Z,17.23
2023-11-12T19:14:16.578Z,19.15
2023-11-12T19:16:47.029Z,19.77
2023-11-12T19:19:22.259Z,15.23
2023-11-12T19:21:53.047Z,15.70
2023-11-12T19:24:31.260Z,15.20
2023-11-12T19:27:10.572Z,19.80
2023-11-12T19:29:49.465Z,9.45
2023-11-12T19:32:25.737Z,13.60
2023-11-12T19:35:14.940Z,10.23
2023-11-12T19:37:55.437Z,8.23
2023-11-12T19:40:26.900Z,7.90
2023-11-12T19:42:57.751Z,6.10
2023-11-12T19:45:29.850Z,7.60
2023-11-12T19:47:58.579Z,5.05
2023-11-12T19:50:36.468Z,5.43
2023-11-12T19:53:07.451Z,5.10
2023-11-12T19:55:37.664Z,3.03
2023-11-12T19:58:29.366Z,2.75
2023-11-12T20:00:58.768Z,1.95
2023-11-12T20:03:26.608Z,2.33
2023-11-12T20:05:55.629Z,8.32
2023-11-12T20:08:27.793Z,2.83
2023-11-12T20:10:57.844Z,5.32
2023-11-12T20:13:29.236Z,3.78
2023-11-12T20:15:59.131Z,2.70
2023-11-12T20:18:26.922Z,4.13
2023-11-12T20:20:55.638Z,5.85
2023-11-12T20:23:23.253Z,3.45
2023-11-12T20:25:50.673Z,3.17
2023-11-12T20:28:24.230Z,3.60
2023-11-12T20:30:54.710Z,4.18
2023-11-12T20:33:28.365Z,8.30
2023-11-12T20:36:07.056Z,3.08
2023-11-12T20:38:41.658Z,3.08
2023-11-12T20:41:09.759Z,3.55
2023-11-12T20:43:38.323Z,5.95
2023-11-12T20:46:06.761Z,8.85
2023-11-12T20:48:34.592Z,9.88
2023-11-12T20:51:03.511Z,5.90
2023-11-12T20:53:32.631Z,6.70
2023-11-12T20:56:00.016Z,5.93
2023-11-12T20:58:30.811Z,3.63
2023-11-12T21:01:00.137Z,5.90
2023-11-12T21:03:31.331Z,4.82
2023-11-12T21:05:59.982Z,4.20
2023-11-12T21:08:27.290Z,4.18
2023-11-12T21:10:54.746Z,4.35
2023-11-12T21:13:22.834Z,2.80
2023-11-12T21:15:53.871Z,7.10
2023-11-12T21:18:23.886Z,4.13
2023-11-12T21:20:51.735Z,2.53
2023-11-12T21:23:19.640Z,3.78
2023-11-12T21:25:47.337Z,2.95
2023-11-12T21:28:17.329Z,4.45
2023-11-12T21:30:49.232Z,4.65
2023-11-12T21:33:17.963Z,3.55
2023-11-12T21:35:54.584Z,5.57
2023-11-12T21:38:22.223Z,5.60
2023-11-12T21:40:49.605Z,4.60
2023-11-12T21:43:20.728Z,5.18
2023-11-12T21:45:50.229Z,8.30
2023-11-12T21:48:21.241Z,2.95
2023-11-12T21:50:53.490Z,3.65
2023-11-12T21:53:23.559Z,3.83
2023-11-12T21:55:52.073Z,7.38
2023-11-12T21:58:24.676Z,4.90
2023-11-12T22:00:53.414Z,3.28
2023-11-12T22:03:21.468Z,2.15
2023-11-12T22:05:48.945Z,3.55
2023-11-12T22:08:16.295Z,2.15
2023-11-12T22:10:49.439Z,1.58
2023-11-12T22:13:17.057Z,3.67
2023-11-12T22:15:45.282Z,2.33
2023-11-12T22:18:15.019Z,1.77
2023-11-12T22:20:43.149Z,3.85
2023-11-12T22:23:12.315Z,3.78
2023-11-12T22:25:40.365Z,5.75
2023-11-12T22:28:08.484Z,3.30
2023-11-12T22:30:38.283Z,3.08
2023-11-12T22:33:24.235Z,3.60
2023-11-12T22:35:51.549Z,5.13
2023-11-12T22:38:18.761Z,3.35
2023-11-12T22:40:46.096Z,3.72
2023-11-12T22:43:13.540Z,5.57
2023-11-12T22:45:43.526Z,4.00
2023-11-12T22:48:11.186Z,2.75
2023-11-12T22:50:39.205Z,4.35
2023-11-12T22:53:08.817Z,3.92
2023-11-12T22:55:36.476Z,8.65
2023-11-12T22:58:03.861Z,6.55
2023-11-12T23:00:51.175Z,7.63
2023-11-12T23:03:19.704Z,4.93
2023-11-12T23:05:48.758Z,4.78
2023-11-12T23:08:16.565Z,3.20
2023-11-12T23:10:48.797Z,3.85
2023-11-12T23:13:18.901Z,1.90
2023-11-12T23:15:46.694Z,1.20
2023-11-12T23:18:14.089Z,2.72
2023-11-12T23:20:45.670Z,3.13
2023-11-12T23:23:17.049Z,1.90
2023-11-12T23:25:44.677Z,2.58
2023-11-12T23:28:15.338Z,1.52
2023-11-12T23:30:44.538Z,1.33
2023-11-12T23:33:12.499Z,2.15
2023-11-12T23:35:39.835Z,1.40
2023-11-12T23:38:07.723Z,1.08
2023-11-12T23:40:35.093Z,1.27
2023-11-12T23:43:02.479Z,5.00
2023-11-12T23:45:29.988Z,4.13
2023-11-12T23:47:57.530Z,2.47
2023-11-12T23:50:27.082Z,1.42
2023-11-12T23:52:55.011Z,2.25
2023-11-12T23:55:23.040Z,2.95
2023-11-12T23:57:50.482Z,1.15
